EJU65TN LFPG-EGNT
Flight info
| Callsign | EJU65TN |
|---|---|
| Flight time | N/A |
| Altitude | 36000 |
| Route | ATREX DCT VESAN DCT RATUK DCT SOVAT L613 MAMUL UY250 RIMTO |
| Aircraft | A319/M-SDE2E3FGIJ1RWXYZ/LB1 |
Departure
| Time | 2026-04-30 08:04 |
|---|---|
| Airport | Charles de Gaulle International Airport (LFPG) |
Arrival
| Time | N/A |
|---|---|
| Airport | Newcastle International Airport (EGNT) |
| Time | Latitude | Longitude | Altitude | Speed | Heading |
|---|---|---|---|---|---|
| 2026-04-30 07:30 | 49.00524 | 2.56184 | 355 ft | 0 kts | 166° |
| 2026-04-30 07:46 | 49.00538 | 2.56178 | 361 ft | 4 kts | 169° |
| 2026-04-30 07:46 | 49.00565 | 2.56174 | 360 ft | 4 kts | 184° |
| 2026-04-30 07:46 | 49.00589 | 2.56183 | 361 ft | 4 kts | 227° |
| 2026-04-30 07:47 | 49.00595 | 2.56201 | 360 ft | 1 kts | 265° |
| 2026-04-30 07:47 | 49.00595 | 2.56204 | 360 ft | 0 kts | 265° |
| 2026-04-30 07:51 | 49.00595 | 2.56197 | 360 ft | 1 kts | 266° |
| 2026-04-30 07:51 | 49.00594 | 2.56177 | 358 ft | 3 kts | 267° |
| 2026-04-30 07:52 | 49.00589 | 2.56124 | 362 ft | 7 kts | 259° |
| 2026-04-30 07:52 | 49.00574 | 2.56048 | 358 ft | 7 kts | 253° |
| 2026-04-30 07:52 | 49.00567 | 2.55986 | 354 ft | 7 kts | 268° |
| 2026-04-30 07:52 | 49.00568 | 2.55893 | 357 ft | 11 kts | 269° |
| 2026-04-30 07:53 | 49.00563 | 2.55774 | 356 ft | 10 kts | 266° |
| 2026-04-30 07:53 | 49.00559 | 2.55679 | 354 ft | 8 kts | 266° |
| 2026-04-30 07:53 | 49.00555 | 2.55610 | 358 ft | 6 kts | 265° |
| 2026-04-30 07:53 | 49.00552 | 2.55534 | 354 ft | 9 kts | 266° |
| 2026-04-30 07:54 | 49.00547 | 2.55434 | 354 ft | 10 kts | 265° |
| 2026-04-30 07:54 | 49.00566 | 2.55306 | 360 ft | 15 kts | 305° |
| 2026-04-30 07:54 | 49.00659 | 2.55237 | 359 ft | 16 kts | 345° |
| 2026-04-30 07:54 | 49.00770 | 2.55188 | 360 ft | 17 kts | 344° |
| 2026-04-30 07:55 | 49.00870 | 2.55144 | 357 ft | 13 kts | 343° |
| 2026-04-30 07:55 | 49.00957 | 2.55107 | 360 ft | 13 kts | 344° |
| 2026-04-30 07:55 | 49.01047 | 2.55068 | 359 ft | 13 kts | 345° |
| 2026-04-30 07:55 | 49.01127 | 2.55035 | 359 ft | 11 kts | 345° |
| 2026-04-30 07:56 | 49.01201 | 2.55004 | 354 ft | 12 kts | 340° |
| 2026-04-30 07:56 | 49.01285 | 2.54963 | 354 ft | 14 kts | 344° |
| 2026-04-30 07:56 | 49.01391 | 2.54922 | 354 ft | 17 kts | 347° |
| 2026-04-30 07:56 | 49.01497 | 2.54898 | 358 ft | 14 kts | 355° |
| 2026-04-30 07:57 | 49.01583 | 2.54889 | 354 ft | 11 kts | 356° |
| 2026-04-30 07:57 | 49.01650 | 2.54884 | 354 ft | 8 kts | 358° |
| 2026-04-30 07:57 | 49.01698 | 2.54879 | 354 ft | 6 kts | 351° |
| 2026-04-30 07:57 | 49.01737 | 2.54871 | 354 ft | 5 kts | 353° |
| 2026-04-30 07:58 | 49.01777 | 2.54864 | 354 ft | 7 kts | 355° |
| 2026-04-30 07:58 | 49.01839 | 2.54857 | 358 ft | 10 kts | 355° |
| 2026-04-30 07:58 | 49.01915 | 2.54837 | 355 ft | 10 kts | 349° |
| 2026-04-30 07:58 | 49.01932 | 2.54763 | 362 ft | 8 kts | 269° |
| 2026-04-30 07:59 | 49.01926 | 2.54649 | 355 ft | 14 kts | 265° |
| 2026-04-30 07:59 | 49.01919 | 2.54509 | 354 ft | 12 kts | 266° |
| 2026-04-30 07:59 | 49.01914 | 2.54396 | 355 ft | 9 kts | 266° |
| 2026-04-30 08:00 | 49.01906 | 2.54250 | 358 ft | 5 kts | 266° |
| 2026-04-30 08:00 | 49.01903 | 2.54195 | 354 ft | 8 kts | 264° |
| 2026-04-30 08:00 | 49.01896 | 2.54066 | 354 ft | 16 kts | 265° |
| 2026-04-30 08:00 | 49.01886 | 2.53900 | 357 ft | 16 kts | 265° |
| 2026-04-30 08:01 | 49.01875 | 2.53719 | 359 ft | 18 kts | 265° |
| 2026-04-30 08:01 | 49.01865 | 2.53525 | 354 ft | 18 kts | 265° |
| 2026-04-30 08:01 | 49.01854 | 2.53332 | 355 ft | 18 kts | 264° |
| 2026-04-30 08:01 | 49.01847 | 2.53147 | 354 ft | 18 kts | 267° |
| 2026-04-30 08:02 | 49.01846 | 2.52782 | 362 ft | 17 kts | 306° |
| 2026-04-30 08:02 | 49.01955 | 2.52734 | 358 ft | 17 kts | 355° |
| 2026-04-30 08:03 | 49.02118 | 2.52747 | 361 ft | 11 kts | 44° |
| 2026-04-30 08:03 | 49.02165 | 2.53201 | 357 ft | 71 kts | 85° |
| 2026-04-30 08:03 | 49.02224 | 2.54304 | 356 ft | 135 kts | 84° |
| 2026-04-30 08:04 | 49.02311 | 2.55876 | 724 ft | 155 kts | 86° |
| 2026-04-30 08:04 | 49.02425 | 2.58041 | 1732 ft | 157 kts | 88° |
| 2026-04-30 08:04 | 49.02515 | 2.59794 | 2183 ft | 177 kts | 89° |
| 2026-04-30 08:04 | 49.02614 | 2.61778 | 2603 ft | 197 kts | 89° |
| 2026-04-30 08:05 | 49.02687 | 2.63239 | 2888 ft | 212 kts | 89° |
| 2026-04-30 08:05 | 49.02851 | 2.66402 | 3670 ft | 238 kts | 88° |
| 2026-04-30 08:05 | 49.02941 | 2.68124 | 4242 ft | 244 kts | 88° |
| 2026-04-30 08:05 | 49.03077 | 2.70733 | 5178 ft | 249 kts | 88° |
| 2026-04-30 08:06 | 49.03377 | 2.73361 | 6112 ft | 258 kts | 69° |
| 2026-04-30 08:06 | 49.04526 | 2.75466 | 6928 ft | 273 kts | 34° |
| 2026-04-30 08:06 | 49.06402 | 2.76284 | 7786 ft | 288 kts | 2° |
| 2026-04-30 08:06 | 49.08345 | 2.75552 | 8681 ft | 298 kts | 340° |
| 2026-04-30 08:07 | 49.10214 | 2.74083 | 9583 ft | 304 kts | 333° |
| 2026-04-30 08:07 | 49.12077 | 2.72505 | 10374 ft | 313 kts | 333° |
| 2026-04-30 08:07 | 49.14049 | 2.70837 | 10700 ft | 334 kts | 333° |
| 2026-04-30 08:07 | 49.16147 | 2.69184 | 11322 ft | 343 kts | 338° |
| 2026-04-30 08:08 | 49.18379 | 2.67835 | 12066 ft | 347 kts | 342° |
| 2026-04-30 08:08 | 49.20688 | 2.66673 | 12827 ft | 352 kts | 346° |
| 2026-04-30 08:08 | 49.23045 | 2.65574 | 13615 ft | 356 kts | 346° |
| 2026-04-30 08:08 | 49.25428 | 2.64465 | 14349 ft | 359 kts | 345° |
| 2026-04-30 08:09 | 49.27832 | 2.63311 | 15008 ft | 364 kts | 344° |
| 2026-04-30 08:09 | 49.30256 | 2.62104 | 15653 ft | 369 kts | 344° |
| 2026-04-30 08:09 | 49.32695 | 2.60859 | 16323 ft | 372 kts | 343° |
| 2026-04-30 08:09 | 49.35163 | 2.59580 | 16990 ft | 376 kts | 343° |